Mount Juliet, TN

5:33 AM CST on December 04, 2016 (GMT -0600)
beckwith rd | | Change Station

Elev 663 ft 36.17 °N, 86.46 °W | Updated 17 seconds ago

Light Rain
Light Rain
39.7 °F
Feels Like 40 °F
N
0.2
Wind Variable Wind from NNE

Today
High -- | Low -- °F
--% Chance of Precip.
Yesterday
High -- | Low -- °F
Precip. -- in
Pressure 30.15 in
Visibility 10.0 miles
Clouds Few 500 ft
Overcast 1600 ft
Windchill 40 °F
Dew Point 39 °F
Humidity 99%
Rainfall 0.18 in
Snow Depth Not available.
6:41 AM 4:30 PM
Waxing Crescent, 22% visible
METAR KMQY 041056Z AUTO 05003KT 10SM -RA FEW005 OVC016 05/04 A3011 RMK AO2 SLP209 P0002 T00500044
Pressure 30.15 in
Visibility 10.0 miles
Clouds Few 500 ft
Overcast 1600 ft
Windchill 40 °F
Dew Point 39 °F
Humidity 99%
Rainfall 0.18 in
Snow Depth Not available.
6:41 AM 4:30 PM
Waxing Crescent, 22% visible
METAR KMQY 041056Z AUTO 05003KT 10SM -RA FEW005 OVC016 05/04 A3011 RMK AO2 SLP209 P0002 T00500044

10-Day Weather Forecast

Almanac

Astronomy

Dec. 04, 2016 Rise Set
Actual Time
Civil Twilight
Nautical Twilight
Astronomical Twilight
Moon
Length of Visible Light
Length of Day
Tomorrow will be .
, % of the Moon is Illuminated

Today's Extremes

State Highs State Lows

Community

WunderPhotos

Upload Photos

1,955,593 photos uploaded!

WunderBlog® & News

Nearby

Air Quality

  Air Quality AQ Index Pollutant
Not available.

Snow Depth

Station Depth Elevation

Earthquake Activity

City Distance Mag. Time & Date
Minimum magnitude displayed is 2.5.

Coastal Water Temperatures

Place Temperature

Stations

Nearby Weather Stations

Station Location Temp. Windchill Dew Point Humidity Wind Precip. Elev Updated Type
                   

Watches & Warnings

There are currently no watches in effect.